sensor_id;sensor_type;location;lat;lon;timestamp;pressure;altitude;pressure_sealevel;temperature;humidity
79791;BME280;69278;52.220;5.172;2023-07-29T00:00:00;100764.63;;;19.31;74.76
79791;BME280;69278;52.220;5.172;2023-07-29T00:02:26;100767.56;;;19.36;74.79
79791;BME280;69278;52.220;5.172;2023-07-29T00:04:56;100773.09;;;19.35;74.94
79791;BME280;69278;52.220;5.172;2023-07-29T00:07:22;100773.75;;;19.37;75.14
79791;BME280;69278;52.220;5.172;2023-07-29T00:09:49;100766.03;;;19.27;75.01
79791;BME280;69278;52.220;5.172;2023-07-29T00:12:15;100771.16;;;19.29;75.12
79791;BME280;69278;52.220;5.172;2023-07-29T00:14:41;100728.75;;;19.12;75.23
79791;BME280;69278;52.220;5.172;2023-07-29T00:17:08;100751.84;;;19.27;75.28
79791;BME280;69278;52.220;5.172;2023-07-29T00:19:34;100727.72;;;19.13;75.28
79791;BME280;69278;52.220;5.172;2023-07-29T00:22:01;100751.47;;;19.30;75.18
79791;BME280;69278;52.220;5.172;2023-07-29T00:24:27;100728.38;;;19.15;75.26
79791;BME280;69278;52.220;5.172;2023-07-29T00:26:54;100731.28;;;19.20;75.37
79791;BME280;69278;52.220;5.172;2023-07-29T00:29:20;100746.13;;;19.30;75.40
79791;BME280;69278;52.220;5.172;2023-07-29T00:31:47;100747.75;;;19.31;75.24
79791;BME280;69278;52.220;5.172;2023-07-29T00:34:13;100744.47;;;19.29;75.24
79791;BME280;69278;52.220;5.172;2023-07-29T00:36:43;100745.31;;;19.29;75.17
79791;BME280;69278;52.220;5.172;2023-07-29T00:39:10;100745.88;;;19.25;75.25
79791;BME280;69278;52.220;5.172;2023-07-29T00:41:37;100739.09;;;19.22;75.43
79791;BME280;69278;52.220;5.172;2023-07-29T00:44:03;100744.22;;;19.23;75.50
79791;BME280;69278;52.220;5.172;2023-07-29T00:46:32;100733.75;;;19.22;75.67
79791;BME280;69278;52.220;5.172;2023-07-29T00:49:00;100702.03;;;19.06;75.45
79791;BME280;69278;52.220;5.172;2023-07-29T00:51:26;100733.38;;;19.25;75.73
79791;BME280;69278;52.220;5.172;2023-07-29T00:53:53;100733.16;;;19.27;75.61
79791;BME280;69278;52.220;5.172;2023-07-29T00:56:19;100717.94;;;19.20;75.83
79791;BME280;69278;52.220;5.172;2023-07-29T00:58:46;100730.28;;;19.28;75.56
79791;BME280;69278;52.220;5.172;2023-07-29T01:01:12;100724.53;;;19.25;75.78
79791;BME280;69278;52.220;5.172;2023-07-29T01:03:39;100730.06;;;19.23;75.82
79791;BME280;69278;52.220;5.172;2023-07-29T01:06:18;100726.56;;;19.23;75.90
79791;BME280;69278;52.220;5.172;2023-07-29T01:08:51;100723.28;;;19.20;76.07
79791;BME280;69278;52.220;5.172;2023-07-29T01:14:08;100719.94;;;19.18;76.43
79791;BME280;69278;52.220;5.172;2023-07-29T01:16:47;100675.03;;;18.94;76.57
79791;BME280;69278;52.220;5.172;2023-07-29T01:22:34;100710.06;;;19.12;76.74
79791;BME280;69278;52.220;5.172;2023-07-29T01:25:01;100694.97;;;18.98;76.71
79791;BME280;69278;52.220;5.172;2023-07-29T01:27:27;100712.13;;;19.10;77.00
79791;BME280;69278;52.220;5.172;2023-07-29T01:29:55;100707.78;;;19.09;76.87
79791;BME280;69278;52.220;5.172;2023-07-29T01:32:31;100709.44;;;19.10;77.44
79791;BME280;69278;52.220;5.172;2023-07-29T01:35:03;100658.31;;;18.79;76.96
79791;BME280;69278;52.220;5.172;2023-07-29T01:37:37;100685.13;;;18.99;77.06
79791;BME280;69278;52.220;5.172;2023-07-29T01:40:05;100686.56;;;19.01;77.09
79791;BME280;69278;52.220;5.172;2023-07-29T01:42:34;100700.16;;;19.06;77.07
79791;BME280;69278;52.220;5.172;2023-07-29T01:45:00;100706.78;;;19.10;77.09
79791;BME280;69278;52.220;5.172;2023-07-29T01:47:27;100708.00;;;19.08;77.29
79791;BME280;69278;52.220;5.172;2023-07-29T01:49:53;100705.50;;;19.06;77.22
79791;BME280;69278;52.220;5.172;2023-07-29T01:52:20;100698.69;;;19.04;77.24
79791;BME280;69278;52.220;5.172;2023-07-29T01:54:46;100699.75;;;19.03;77.31
79791;BME280;69278;52.220;5.172;2023-07-29T01:57:12;100695.16;;;18.97;77.35
79791;BME280;69278;52.220;5.172;2023-07-29T01:59:39;100700.31;;;18.98;77.38
79791;BME280;69278;52.220;5.172;2023-07-29T02:02:05;100704.19;;;18.96;77.70
79791;BME280;69278;52.220;5.172;2023-07-29T02:04:32;100698.03;;;18.95;77.59
79791;BME280;69278;52.220;5.172;2023-07-29T02:06:59;100703.56;;;18.94;77.53
79791;BME280;69278;52.220;5.172;2023-07-29T02:09:25;100692.25;;;18.92;77.78
79791;BME280;69278;52.220;5.172;2023-07-29T02:11:52;100695.31;;;18.89;77.77
79791;BME280;69278;52.220;5.172;2023-07-29T02:14:18;100694.69;;;18.87;77.71
79791;BME280;69278;52.220;5.172;2023-07-29T02:16:44;100693.03;;;18.86;77.76
79791;BME280;69278;52.220;5.172;2023-07-29T02:19:11;100698.38;;;18.86;77.79
79791;BME280;69278;52.220;5.172;2023-07-29T02:21:38;100686.03;;;18.85;77.92
79791;BME280;69278;52.220;5.172;2023-07-29T02:24:04;100690.56;;;18.84;77.84
79791;BME280;69278;52.220;5.172;2023-07-29T02:26:31;100677.78;;;18.80;77.94
79791;BME280;69278;52.220;5.172;2023-07-29T02:28:57;100677.78;;;18.80;78.06
79791;BME280;69278;52.220;5.172;2023-07-29T02:31:24;100675.31;;;18.78;77.98
79791;BME280;69278;52.220;5.172;2023-07-29T02:33:51;100682.94;;;18.81;78.10
79791;BME280;69278;52.220;5.172;2023-07-29T02:36:18;100683.94;;;18.80;78.06
79791;BME280;69278;52.220;5.172;2023-07-29T02:38:45;100666.06;;;18.74;78.10
79791;BME280;69278;52.220;5.172;2023-07-29T02:41:11;100668.72;;;18.74;78.02
79791;BME280;69278;52.220;5.172;2023-07-29T02:43:43;100668.53;;;18.76;77.91
79791;BME280;69278;52.220;5.172;2023-07-29T02:46:10;100665.44;;;18.72;78.05
79791;BME280;69278;52.220;5.172;2023-07-29T02:48:36;100679.41;;;18.74;78.09
79791;BME280;69278;52.220;5.172;2023-07-29T02:51:03;100677.31;;;18.70;78.03
79791;BME280;69278;52.220;5.172;2023-07-29T02:53:29;100670.91;;;18.64;77.96
79791;BME280;69278;52.220;5.172;2023-07-29T02:55:56;100677.88;;;18.65;78.10
79791;BME280;69278;52.220;5.172;2023-07-29T02:58:22;100676.66;;;18.68;78.03
79791;BME280;69278;52.220;5.172;2023-07-29T03:00:49;100651.72;;;18.54;78.06
79791;BME280;69278;52.220;5.172;2023-07-29T03:03:16;100655.66;;;18.58;77.98
79791;BME280;69278;52.220;5.172;2023-07-29T03:05:43;100648.84;;;18.55;78.00
79791;BME280;69278;52.220;5.172;2023-07-29T03:08:09;100658.97;;;18.60;77.96
79791;BME280;69278;52.220;5.172;2023-07-29T03:10:36;100663.03;;;18.56;78.03
79791;BME280;69278;52.220;5.172;2023-07-29T03:13:02;100662.66;;;18.59;78.12
79791;BME280;69278;52.220;5.172;2023-07-29T03:15:29;100660.97;;;18.58;77.99
79791;BME280;69278;52.220;5.172;2023-07-29T03:17:56;100651.34;;;18.57;78.02
79791;BME280;69278;52.220;5.172;2023-07-29T03:20:22;100643.03;;;18.45;78.01
79791;BME280;69278;52.220;5.172;2023-07-29T03:22:49;100650.06;;;18.53;78.18
79791;BME280;69278;52.220;5.172;2023-07-29T03:25:15;100654.59;;;18.52;78.20
79791;BME280;69278;52.220;5.172;2023-07-29T03:27:42;100660.56;;;18.54;78.15
79791;BME280;69278;52.220;5.172;2023-07-29T03:30:09;100634.78;;;18.40;78.28
79791;BME280;69278;52.220;5.172;2023-07-29T03:32:40;100652.72;;;18.53;78.27
79791;BME280;69278;52.220;5.172;2023-07-29T03:35:07;100657.25;;;18.52;78.13
79791;BME280;69278;52.220;5.172;2023-07-29T03:37:34;100635.19;;;18.44;78.04
79791;BME280;69278;52.220;5.172;2023-07-29T03:40:00;100623.66;;;18.37;77.95
79791;BME280;69278;52.220;5.172;2023-07-29T03:42:30;100645.13;;;18.50;77.97
79791;BME280;69278;52.220;5.172;2023-07-29T03:44:57;100639.06;;;18.41;77.85
79791;BME280;69278;52.220;5.172;2023-07-29T03:47:23;100653.94;;;18.50;77.78
79791;BME280;69278;52.220;5.172;2023-07-29T03:49:50;100641.94;;;18.40;77.53
79791;BME280;69278;52.220;5.172;2023-07-29T03:52:16;100666.84;;;18.47;77.51
79791;BME280;69278;52.220;5.172;2023-07-29T03:54:42;100658.78;;;18.40;77.53
79791;BME280;69278;52.220;5.172;2023-07-29T03:57:09;100648.59;;;18.29;77.43
79791;BME280;69278;52.220;5.172;2023-07-29T03:59:35;100671.69;;;18.43;77.32
79791;BME280;69278;52.220;5.172;2023-07-29T04:02:02;100670.06;;;18.42;77.08
79791;BME280;69278;52.220;5.172;2023-07-29T04:04:28;100644.22;;;18.22;77.04
79791;BME280;69278;52.220;5.172;2023-07-29T04:06:55;100675.78;;;18.39;76.93
79791;BME280;69278;52.220;5.172;2023-07-29T04:09:21;100676.59;;;18.40;76.98
79791;BME280;69278;52.220;5.172;2023-07-29T04:11:48;100664.22;;;18.32;76.74
79791;BME280;69278;52.220;5.172;2023-07-29T04:14:16;100659.34;;;18.36;76.78
79791;BME280;69278;52.220;5.172;2023-07-29T04:16:43;100657.31;;;18.38;76.76
79791;BME280;69278;52.220;5.172;2023-07-29T04:19:09;100646.81;;;18.36;76.63
79791;BME280;69278;52.220;5.172;2023-07-29T04:21:35;100660.16;;;18.36;76.49
79791;BME280;69278;52.220;5.172;2023-07-29T04:24:02;100660.09;;;18.30;76.46
79791;BME280;69278;52.220;5.172;2023-07-29T04:26:28;100669.94;;;18.29;76.56
79791;BME280;69278;52.220;5.172;2023-07-29T04:28:55;100659.63;;;18.26;76.38
79791;BME280;69278;52.220;5.172;2023-07-29T04:31:22;100654.63;;;18.17;76.39
79791;BME280;69278;52.220;5.172;2023-07-29T04:33:48;100663.97;;;18.27;76.65
79791;BME280;69278;52.220;5.172;2023-07-29T04:36:14;100654.72;;;18.23;76.48
79791;BME280;69278;52.220;5.172;2023-07-29T04:38:41;100653.03;;;18.22;76.40
79791;BME280;69278;52.220;5.172;2023-07-29T04:41:07;100654.31;;;18.26;76.42
79791;BME280;69278;52.220;5.172;2023-07-29T04:43:35;100640.22;;;18.11;76.56
79791;BME280;69278;52.220;5.172;2023-07-29T04:46:01;100664.16;;;18.26;76.37
79791;BME280;69278;52.220;5.172;2023-07-29T04:48:28;100643.59;;;18.20;76.63
79791;BME280;69278;52.220;5.172;2023-07-29T04:50:54;100657.16;;;18.25;76.58
79791;BME280;69278;52.220;5.172;2023-07-29T04:53:21;100659.22;;;18.23;76.58
79791;BME280;69278;52.220;5.172;2023-07-29T04:55:47;100656.28;;;18.18;76.68
79791;BME280;69278;52.220;5.172;2023-07-29T04:58:14;100660.03;;;18.23;76.70
79791;BME280;69278;52.220;5.172;2023-07-29T05:00:40;100664.34;;;18.24;76.72
79791;BME280;69278;52.220;5.172;2023-07-29T05:03:07;100667.19;;;18.23;76.69
79791;BME280;69278;52.220;5.172;2023-07-29T05:05:34;100682.19;;;18.24;76.71
79791;BME280;69278;52.220;5.172;2023-07-29T05:08:00;100676.66;;;18.25;76.78
79791;BME280;69278;52.220;5.172;2023-07-29T05:10:26;100655.03;;;18.14;76.96
79791;BME280;69278;52.220;5.172;2023-07-29T05:12:53;100662.44;;;18.18;76.76
79791;BME280;69278;52.220;5.172;2023-07-29T05:15:19;100656.09;;;18.19;77.07
79791;BME280;69278;52.220;5.172;2023-07-29T05:17:46;100664.75;;;18.21;77.51
79791;BME280;69278;52.220;5.172;2023-07-29T05:20:12;100682.91;;;18.53;78.12
79791;BME280;69278;52.220;5.172;2023-07-29T05:22:39;100674.66;;;18.70;77.58
79791;BME280;69278;52.220;5.172;2023-07-29T05:25:06;100666.56;;;18.84;77.00
79791;BME280;69278;52.220;5.172;2023-07-29T05:27:32;100660.28;;;18.98;76.70
79791;BME280;69278;52.220;5.172;2023-07-29T05:29:59;100677.69;;;19.22;76.48
79791;BME280;69278;52.220;5.172;2023-07-29T05:32:25;100677.94;;;19.34;76.09
79791;BME280;69278;52.220;5.172;2023-07-29T05:34:51;100680.13;;;19.45;75.71
79791;BME280;69278;52.220;5.172;2023-07-29T05:37:18;100663.25;;;19.38;75.32
79791;BME280;69278;52.220;5.172;2023-07-29T05:39:44;100677.50;;;19.58;75.03
79791;BME280;69278;52.220;5.172;2023-07-29T05:42:11;100680.41;;;19.63;74.77
79791;BME280;69278;52.220;5.172;2023-07-29T05:44:37;100677.34;;;19.66;74.33
79791;BME280;69278;52.220;5.172;2023-07-29T05:47:04;100677.75;;;19.69;74.41
79791;BME280;69278;52.220;5.172;2023-07-29T05:49:31;100681.88;;;19.72;73.78
79791;BME280;69278;52.220;5.172;2023-07-29T05:51:57;100681.47;;;19.75;73.84
79791;BME280;69278;52.220;5.172;2023-07-29T05:54:24;100673.91;;;19.78;73.84
79791;BME280;69278;52.220;5.172;2023-07-29T05:56:50;100672.91;;;19.86;73.76
79791;BME280;69278;52.220;5.172;2023-07-29T05:59:16;100679.72;;;19.95;73.46
79791;BME280;69278;52.220;5.172;2023-07-29T06:01:43;100689.56;;;20.01;73.17
79791;BME280;69278;52.220;5.172;2023-07-29T06:04:09;100682.81;;;20.05;73.06
79791;BME280;69278;52.220;5.172;2023-07-29T06:06:36;100680.78;;;20.07;72.78
79791;BME280;69278;52.220;5.172;2023-07-29T06:09:03;100676.03;;;20.09;72.76
79791;BME280;69278;52.220;5.172;2023-07-29T06:11:30;100675.22;;;20.15;72.55
79791;BME280;69278;52.220;5.172;2023-07-29T06:13:56;100659.38;;;20.14;72.55
79791;BME280;69278;52.220;5.172;2023-07-29T06:16:22;100670.31;;;20.19;72.35
79791;BME280;69278;52.220;5.172;2023-07-29T06:18:49;100675.06;;;20.23;72.12
79791;BME280;69278;52.220;5.172;2023-07-29T06:21:16;100675.69;;;20.25;72.26
79791;BME280;69278;52.220;5.172;2023-07-29T06:23:44;100677.56;;;20.25;72.08
79791;BME280;69278;52.220;5.172;2023-07-29T06:26:10;100673.00;;;20.25;72.25
79791;BME280;69278;52.220;5.172;2023-07-29T06:28:37;100687.22;;;20.26;72.29
79791;BME280;69278;52.220;5.172;2023-07-29T06:31:03;100699.13;;;20.23;72.24
79791;BME280;69278;52.220;5.172;2023-07-29T06:33:30;100692.34;;;20.27;72.05
79791;BME280;69278;52.220;5.172;2023-07-29T06:35:56;100695.44;;;20.24;72.00
79791;BME280;69278;52.220;5.172;2023-07-29T06:38:23;100699.34;;;20.28;72.12
79791;BME280;69278;52.220;5.172;2023-07-29T06:40:49;100691.13;;;20.30;72.15
79791;BME280;69278;52.220;5.172;2023-07-29T06:43:16;100695.81;;;20.21;71.74
79791;BME280;69278;52.220;5.172;2023-07-29T06:45:43;100706.16;;;20.24;72.14
79791;BME280;69278;52.220;5.172;2023-07-29T06:48:09;100667.19;;;20.02;72.28
79791;BME280;69278;52.220;5.172;2023-07-29T06:50:36;100698.31;;;20.23;72.35
79791;BME280;69278;52.220;5.172;2023-07-29T06:53:03;100700.19;;;20.22;72.47
79791;BME280;69278;52.220;5.172;2023-07-29T06:55:29;100690.47;;;20.21;72.27
79791;BME280;69278;52.220;5.172;2023-07-29T06:57:56;100696.47;;;20.30;72.58
79791;BME280;69278;52.220;5.172;2023-07-29T07:00:22;100692.16;;;20.35;72.48
79791;BME280;69278;52.220;5.172;2023-07-29T07:02:49;100675.44;;;20.20;72.31
79791;BME280;69278;52.220;5.172;2023-07-29T07:05:15;100694.44;;;20.45;72.42
79791;BME280;69278;52.220;5.172;2023-07-29T07:07:42;100693.03;;;20.49;72.17
79791;BME280;69278;52.220;5.172;2023-07-29T07:10:08;100693.81;;;20.49;71.98
79791;BME280;69278;52.220;5.172;2023-07-29T07:12:35;100679.63;;;20.42;71.90
79791;BME280;69278;52.220;5.172;2023-07-29T07:15:01;100689.72;;;20.47;71.92
79791;BME280;69278;52.220;5.172;2023-07-29T07:17:28;100684.34;;;20.40;72.13
79791;BME280;69278;52.220;5.172;2023-07-29T07:19:54;100692.38;;;20.47;72.03
79791;BME280;69278;52.220;5.172;2023-07-29T07:22:21;100701.66;;;20.58;71.93
79791;BME280;69278;52.220;5.172;2023-07-29T07:24:47;100701.66;;;20.58;71.92
79791;BME280;69278;52.220;5.172;2023-07-29T07:27:14;100698.16;;;20.57;71.96
79791;BME280;69278;52.220;5.172;2023-07-29T07:29:40;100681.91;;;20.45;71.96
79791;BME280;69278;52.220;5.172;2023-07-29T07:32:07;100699.22;;;20.56;72.12
79791;BME280;69278;52.220;5.172;2023-07-29T07:34:34;100693.44;;;20.52;72.27
79791;BME280;69278;52.220;5.172;2023-07-29T07:37:00;100704.56;;;20.63;72.06
79791;BME280;69278;52.220;5.172;2023-07-29T07:39:27;100707.44;;;20.68;72.15
79791;BME280;69278;52.220;5.172;2023-07-29T07:41:53;100704.97;;;20.73;71.93
79791;BME280;69278;52.220;5.172;2023-07-29T07:44:20;100708.25;;;20.75;71.89
79791;BME280;69278;52.220;5.172;2023-07-29T07:46:46;100671.63;;;20.56;72.00
79791;BME280;69278;52.220;5.172;2023-07-29T07:49:13;100700.47;;;20.73;72.04
79791;BME280;69278;52.220;5.172;2023-07-29T07:51:40;100708.66;;;20.78;71.94
79791;BME280;69278;52.220;5.172;2023-07-29T07:54:06;100708.66;;;20.78;71.62
79791;BME280;69278;52.220;5.172;2023-07-29T07:56:33;100707.44;;;20.81;71.80
79791;BME280;69278;52.220;5.172;2023-07-29T07:59:00;100713.81;;;20.86;71.70
79791;BME280;69278;52.220;5.172;2023-07-29T08:01:26;100714.03;;;20.91;71.46
79791;BME280;69278;52.220;5.172;2023-07-29T08:03:53;100710.72;;;20.96;71.47
79791;BME280;69278;52.220;5.172;2023-07-29T08:06:19;100707.03;;;21.03;71.51
79791;BME280;69278;52.220;5.172;2023-07-29T08:08:46;100706.66;;;21.06;70.97
79791;BME280;69278;52.220;5.172;2023-07-29T08:11:12;100677.97;;;20.81;70.90
79791;BME280;69278;52.220;5.172;2023-07-29T08:13:39;100717.75;;;20.97;71.24
79791;BME280;69278;52.220;5.172;2023-07-29T08:16:05;100726.41;;;20.92;71.31
79791;BME280;69278;52.220;5.172;2023-07-29T08:18:32;100717.72;;;20.90;71.49
79791;BME280;69278;52.220;5.172;2023-07-29T08:20:59;100709.06;;;20.88;71.47
79791;BME280;69278;52.220;5.172;2023-07-29T08:23:31;100682.72;;;20.79;71.28
79791;BME280;69278;52.220;5.172;2023-07-29T08:25:59;100709.09;;;20.95;71.59
79791;BME280;69278;52.220;5.172;2023-07-29T08:28:30;100697.34;;;20.96;71.52
79791;BME280;69278;52.220;5.172;2023-07-29T08:30:57;100709.09;;;21.01;71.27
79791;BME280;69278;52.220;5.172;2023-07-29T08:33:24;100720.00;;;21.00;70.74
79791;BME280;69278;52.220;5.172;2023-07-29T08:35:51;100720.59;;;20.95;70.53
79791;BME280;69278;52.220;5.172;2023-07-29T08:38:17;100707.63;;;20.86;70.89
79791;BME280;69278;52.220;5.172;2023-07-29T08:41:06;100718.16;;;20.87;71.03
79791;BME280;69278;52.220;5.172;2023-07-29T08:43:38;100713.22;;;20.78;71.18
79791;BME280;69278;52.220;5.172;2023-07-29T08:46:05;100719.78;;;20.82;70.87
79791;BME280;69278;52.220;5.172;2023-07-29T08:48:43;100703.72;;;20.82;70.61
79791;BME280;69278;52.220;5.172;2023-07-29T08:51:10;100711.78;;;20.95;69.26
79791;BME280;69278;52.220;5.172;2023-07-29T08:53:38;100716.06;;;21.02;69.17
79791;BME280;69278;52.220;5.172;2023-07-29T08:56:05;100707.03;;;21.03;67.79
79791;BME280;69278;52.220;5.172;2023-07-29T08:58:32;100710.34;;;21.05;67.73
79791;BME280;69278;52.220;5.172;2023-07-29T09:00:59;100718.78;;;21.15;68.09
79791;BME280;69278;52.220;5.172;2023-07-29T09:03:26;100712.81;;;21.13;67.78
79791;BME280;69278;52.220;5.172;2023-07-29T09:05:55;100714.44;;;21.21;67.89
79791;BME280;69278;52.220;5.172;2023-07-29T09:08:26;100701.88;;;21.28;68.26
79791;BME280;69278;52.220;5.172;2023-07-29T09:10:54;100711.75;;;21.41;67.92
79791;BME280;69278;52.220;5.172;2023-07-29T09:13:21;100713.53;;;21.53;67.63
79791;BME280;69278;52.220;5.172;2023-07-29T09:15:48;100716.06;;;21.48;67.55
79791;BME280;69278;52.220;5.172;2023-07-29T09:18:17;100735.84;;;21.47;67.50
79791;BME280;69278;52.220;5.172;2023-07-29T09:20:47;100734.81;;;21.42;67.93
79791;BME280;69278;52.220;5.172;2023-07-29T09:23:14;100730.88;;;21.44;67.84
79791;BME280;69278;52.220;5.172;2023-07-29T09:25:41;100733.34;;;21.52;67.87
79791;BME280;69278;52.220;5.172;2023-07-29T09:28:12;100723.63;;;21.64;67.54
79791;BME280;69278;52.220;5.172;2023-07-29T09:30:39;100735.53;;;21.81;66.70
79791;BME280;69278;52.220;5.172;2023-07-29T09:33:06;100725.59;;;21.95;64.48
79791;BME280;69278;52.220;5.172;2023-07-29T09:35:34;100719.16;;;22.03;64.41
79791;BME280;69278;52.220;5.172;2023-07-29T09:38:05;100729.47;;;22.06;64.51
79791;BME280;69278;52.220;5.172;2023-07-29T09:40:38;100721.25;;;22.01;64.01
79791;BME280;69278;52.220;5.172;2023-07-29T09:43:06;100732.63;;;21.96;63.42
79791;BME280;69278;52.220;5.172;2023-07-29T09:45:34;100730.75;;;21.97;64.13
79791;BME280;69278;52.220;5.172;2023-07-29T09:48:03;100708.50;;;21.90;64.18
79791;BME280;69278;52.220;5.172;2023-07-29T09:50:29;100733.00;;;22.06;64.68
79791;BME280;69278;52.220;5.172;2023-07-29T09:52:56;100706.03;;;21.88;63.83
79791;BME280;69278;52.220;5.172;2023-07-29T09:55:26;100714.63;;;22.03;63.48
79791;BME280;69278;52.220;5.172;2023-07-29T09:57:57;100729.25;;;22.07;63.84
79791;BME280;69278;52.220;5.172;2023-07-29T10:00:31;100726.38;;;22.02;64.28
79791;BME280;69278;52.220;5.172;2023-07-29T10:02:59;100733.38;;;22.10;64.70
79791;BME280;69278;52.220;5.172;2023-07-29T10:05:27;100736.66;;;22.12;64.80
79791;BME280;69278;52.220;5.172;2023-07-29T10:07:55;100715.88;;;22.01;65.49
79791;BME280;69278;52.220;5.172;2023-07-29T10:10:21;100717.69;;;22.07;65.42
79791;BME280;69278;52.220;5.172;2023-07-29T10:12:49;100739.13;;;22.13;66.52
79791;BME280;69278;52.220;5.172;2023-07-29T10:15:17;100744.09;;;22.10;67.73
79791;BME280;69278;52.220;5.172;2023-07-29T10:17:45;100742.31;;;21.91;69.04
79791;BME280;69278;52.220;5.172;2023-07-29T10:20:15;100755.34;;;21.87;69.40
79791;BME280;69278;52.220;5.172;2023-07-29T10:22:43;100751.81;;;21.80;69.70
79791;BME280;69278;52.220;5.172;2023-07-29T10:27:43;100734.81;;;21.42;70.70
79791;BME280;69278;52.220;5.172;2023-07-29T10:30:13;100727.81;;;21.28;70.80
79791;BME280;69278;52.220;5.172;2023-07-29T10:32:44;100740.59;;;21.39;71.09
79791;BME280;69278;52.220;5.172;2023-07-29T10:35:15;100753.16;;;21.38;69.59
79791;BME280;69278;52.220;5.172;2023-07-29T10:37:42;100747.38;;;21.48;69.73
79791;BME280;69278;52.220;5.172;2023-07-29T10:40:10;100750.25;;;21.53;68.72
79791;BME280;69278;52.220;5.172;2023-07-29T10:42:38;100742.22;;;21.53;68.85
79791;BME280;69278;52.220;5.172;2023-07-29T10:45:20;100721.03;;;21.38;69.06
79791;BME280;69278;52.220;5.172;2023-07-29T10:47:48;100741.97;;;21.61;70.00
79791;BME280;69278;52.220;5.172;2023-07-29T10:50:19;100738.06;;;21.70;70.49
79791;BME280;69278;52.220;5.172;2023-07-29T10:52:52;100747.69;;;21.77;70.92
79791;BME280;69278;52.220;5.172;2023-07-29T10:55:31;100746.47;;;21.73;70.71
79791;BME280;69278;52.220;5.172;2023-07-29T10:58:10;100743.22;;;21.58;70.81
79791;BME280;69278;52.220;5.172;2023-07-29T11:00:38;100726.13;;;21.46;70.84
79791;BME280;69278;52.220;5.172;2023-07-29T11:03:06;100758.88;;;21.61;71.26
79791;BME280;69278;52.220;5.172;2023-07-29T11:05:47;100721.44;;;21.35;71.17
79791;BME280;69278;52.220;5.172;2023-07-29T11:08:18;100759.34;;;21.45;71.13
79791;BME280;69278;52.220;5.172;2023-07-29T11:10:58;100750.69;;;21.37;71.77
79791;BME280;69278;52.220;5.172;2023-07-29T11:13:29;100757.09;;;21.36;73.25
79791;BME280;69278;52.220;5.172;2023-07-29T11:15:57;100699.41;;;20.94;73.51
79791;BME280;69278;52.220;5.172;2023-07-29T11:18:29;100756.47;;;21.21;74.29
79791;BME280;69278;52.220;5.172;2023-07-29T11:20:57;100747.84;;;21.12;74.27
79791;BME280;69278;52.220;5.172;2023-07-29T11:23:28;100753.59;;;21.09;74.81
79791;BME280;69278;52.220;5.172;2023-07-29T11:25:56;100762.66;;;21.14;74.82
79791;BME280;69278;52.220;5.172;2023-07-29T11:28:23;100764.31;;;21.09;74.79
79791;BME280;69278;52.220;5.172;2023-07-29T11:30:51;100758.91;;;21.02;74.89
79791;BME280;69278;52.220;5.172;2023-07-29T11:33:19;100751.34;;;21.06;75.10
79791;BME280;69278;52.220;5.172;2023-07-29T11:35:49;100743.31;;;21.06;74.57
79791;BME280;69278;52.220;5.172;2023-07-29T11:38:17;100754.41;;;21.23;74.60
79791;BME280;69278;52.220;5.172;2023-07-29T11:40:53;100738.53;;;21.14;74.71
79791;BME280;69278;52.220;5.172;2023-07-29T11:43:20;100745.53;;;21.22;74.54
79791;BME280;69278;52.220;5.172;2023-07-29T11:45:46;100752.53;;;21.30;74.66
79791;BME280;69278;52.220;5.172;2023-07-29T11:48:18;100760.16;;;21.39;73.83
79791;BME280;69278;52.220;5.172;2023-07-29T11:50:45;100752.31;;;21.51;73.37
79791;BME280;69278;52.220;5.172;2023-07-29T11:53:11;100755.19;;;21.49;72.75
79791;BME280;69278;52.220;5.172;2023-07-29T11:55:42;100731.31;;;21.48;72.76
79791;BME280;69278;52.220;5.172;2023-07-29T11:58:09;100730.00;;;21.70;72.57
79791;BME280;69278;52.220;5.172;2023-07-29T12:00:37;100746.41;;;22.00;71.38
79791;BME280;69278;52.220;5.172;2023-07-29T12:03:04;100746.41;;;22.06;70.27
79791;BME280;69278;52.220;5.172;2023-07-29T12:05:31;100750.72;;;22.07;69.44
79791;BME280;69278;52.220;5.172;2023-07-29T12:07:58;100745.16;;;22.02;68.76
79791;BME280;69278;52.220;5.172;2023-07-29T12:10:25;100757.94;;;22.07;69.39
79791;BME280;69278;52.220;5.172;2023-07-29T12:12:52;100754.63;;;22.05;69.45
79791;BME280;69278;52.220;5.172;2023-07-29T12:15:26;100741.88;;;22.00;69.48
79791;BME280;69278;52.220;5.172;2023-07-29T12:17:55;100711.41;;;21.88;69.05
79791;BME280;69278;52.220;5.172;2023-07-29T12:20:24;100745.72;;;22.17;69.66
79791;BME280;69278;52.220;5.172;2023-07-29T12:23:00;100727.41;;;22.08;68.82
79791;BME280;69278;52.220;5.172;2023-07-29T12:25:32;100742.44;;;22.15;68.11
79791;BME280;69278;52.220;5.172;2023-07-29T12:28:03;100748.63;;;22.16;68.94
79791;BME280;69278;52.220;5.172;2023-07-29T12:30:30;100744.69;;;22.18;68.74
79791;BME280;69278;52.220;5.172;2023-07-29T12:32:57;100738.41;;;22.31;68.27
79791;BME280;69278;52.220;5.172;2023-07-29T12:35:24;100730.63;;;22.54;68.04
79791;BME280;69278;52.220;5.172;2023-07-29T12:38:00;100726.75;;;22.81;66.85
79791;BME280;69278;52.220;5.172;2023-07-29T12:40:26;100734.09;;;22.92;65.65
79791;BME280;69278;52.220;5.172;2023-07-29T12:42:54;100721.69;;;22.91;65.63
79791;BME280;69278;52.220;5.172;2023-07-29T12:45:20;100736.19;;;22.90;64.74
79791;BME280;69278;52.220;5.172;2023-07-29T12:47:50;100738.53;;;22.80;64.06
79791;BME280;69278;52.220;5.172;2023-07-29T12:50:17;100735.91;;;22.98;63.75
79791;BME280;69278;52.220;5.172;2023-07-29T12:52:44;100735.59;;;23.56;62.85
79791;BME280;69278;52.220;5.172;2023-07-29T12:55:10;100730.25;;;24.04;60.26
79791;BME280;69278;52.220;5.172;2023-07-29T12:57:41;100720.81;;;24.31;60.15
79791;BME280;69278;52.220;5.172;2023-07-29T13:00:09;100730.94;;;24.59;59.07